Terminal Aerodrome Forecast
Issued by NWS

Home | Current Version | Previous Version | Text Only | Print | Product List | Glossary On
Versions: 1 2 3 4 5 6 7 8 9 10 11 12 13 14 15 16 17
000
FTUS42 KMLB 190520
TAFLEE
TAF
KLEE 190520Z 1906/2006 VRB02KT P6SM BKN250
     FM190900 32003KT 2SM BR SCT008 SCT250
     FM191300 29003KT 5SM BR FEW020 SCT250
     FM191400 VRB03KT P6SM SCT250=

USA.gov is the U.S. government's official web portal to all federal, state and local government web resources and services.